Time;durP1;ratioP1;P1;durP2;ratioP2;P2;SDS_P1;SDS_P2;PMS_P1;PMS_P2;Temp;Humidity;BMP_temperature;BMP_pressure;BME280_temperature;BME280_humidity;BME280_pressure;Samples;Min_cycle;Max_cycle;Signal;HPM_P1;HPM_P2
2022/03/04 00:02:03;;;;;;;19.50;10.45;;;;;;;3.18;100.00;102174.97;5072576;28;20550;-31
2022/03/04 00:04:34;;;;;;;20.85;11.40;;;;;;;3.16;100.00;102177.97;5072895;28;20052;-29
2022/03/04 00:07:01;;;;;;;19.33;10.75;;;;;;;3.14;100.00;102179.25;5073007;28;20128;-31
2022/03/04 00:09:29;;;;;;;17.88;10.30;;;;;;;3.13;100.00;102181.16;5072431;28;20135;-32
2022/03/04 00:11:57;;;;;;;19.10;11.00;;;;;;;3.11;100.00;102180.50;5072391;28;20482;-28
2022/03/04 00:14:26;;;;;;;18.23;9.98;;;;;;;3.09;100.00;102180.72;5072605;28;20107;-30
2022/03/04 00:16:54;;;;;;;14.95;9.00;;;;;;;3.06;100.00;102186.66;5072711;28;20040;-29
2022/03/04 00:19:22;;;;;;;18.05;9.98;;;;;;;3.04;100.00;102180.53;5071077;28;20106;-32
2022/03/04 00:21:51;;;;;;;18.58;9.88;;;;;;;3.02;100.00;102185.41;5070206;28;20456;-28
2022/03/04 00:24:20;;;;;;;19.42;10.07;;;;;;;2.99;100.00;102180.34;5070422;28;20041;-29
2022/03/04 00:26:49;;;;;;;16.05;9.65;;;;;;;2.95;100.00;102175.47;5070758;28;20045;-29
2022/03/04 00:29:18;;;;;;;17.92;10.57;;;;;;;2.91;100.00;102169.56;5070697;28;20456;-28
2022/03/04 00:31:49;;;;;;;18.73;10.57;;;;;;;2.88;100.00;102172.72;5060456;28;20151;-27
2022/03/04 00:34:16;;;;;;;18.92;10.60;;;;;;;2.85;100.00;102175.91;5070450;28;20162;-28
2022/03/04 00:36:44;;;;;;;19.25;10.95;;;;;;;2.83;100.00;102177.19;5071601;28;20111;-27
2022/03/04 00:39:14;;;;;;;21.02;10.75;;;;;;;2.82;100.00;102178.25;5071748;28;20044;-35
2022/03/04 00:41:42;;;;;;;21.20;11.50;;;;;;;2.78;100.00;102182.53;5069602;28;20052;-29
2022/03/04 00:44:09;;;;;;;17.30;9.93;;;;;;;2.77;100.00;102184.44;5071301;28;20056;-31
2022/03/04 00:46:37;;;;;;;21.00;11.32;;;;;;;2.75;100.00;102189.31;5071699;28;20071;-26
2022/03/04 00:49:06;;;;;;;17.15;9.75;;;;;;;2.73;100.00;102185.91;5072080;28;20040;-29
2022/03/04 00:51:34;;;;;;;20.45;11.30;;;;;;;2.69;100.00;102185.50;5071808;28;20127;-27
2022/03/04 00:54:02;;;;;;;17.52;9.73;;;;;;;2.68;100.00;102192.06;5071971;28;20059;-30
2022/03/04 00:56:30;;;;;;;21.15;11.32;;;;;;;2.66;100.00;102179.56;5071550;28;20048;-32
2022/03/04 00:58:57;;;;;;;19.42;10.23;;;;;;;2.66;100.00;102185.06;5063881;28;20040;-29
2022/03/04 01:01:25;;;;;;;19.63;11.48;;;;;;;2.63;100.00;102188.25;5071692;28;20489;-30
2022/03/04 01:03:53;;;;;;;19.38;10.73;;;;;;;2.62;100.00;102189.31;5070194;28;20127;-28
2022/03/04 01:06:22;;;;;;;18.85;10.73;;;;;;;2.59;100.00;102185.09;5071966;28;20048;-33
2022/03/04 01:08:50;;;;;;;21.48;10.80;;;;;;;2.61;100.00;102190.38;5071727;28;20468;-30
2022/03/04 01:11:18;;;;;;;21.88;11.98;;;;;;;2.60;100.00;102177.69;5071487;28;20050;-30
2022/03/04 01:13:46;;;;;;;20.30;10.13;;;;;;;2.61;100.00;102182.09;5071792;28;20048;-33
2022/03/04 01:16:14;;;;;;;23.15;11.45;;;;;;;2.59;100.00;102179.59;5060705;28;20044;-29
2022/03/04 01:18:41;;;;;;;22.60;10.50;;;;;;;2.62;100.00;102181.03;5071294;28;20409;-28
2022/03/04 01:21:09;;;;;;;20.45;10.27;;;;;;;2.63;100.00;102180.00;5071519;28;20043;-29
2022/03/04 01:23:38;;;;;;;21.20;11.70;;;;;;;2.66;100.00;102185.91;5071890;28;20048;-29
2022/03/04 01:26:06;;;;;;;17.67;9.98;;;;;;;2.65;100.00;102183.38;5068026;28;20067;-27
2022/03/04 01:28:34;;;;;;;19.27;10.63;;;;;;;2.64;100.00;102178.94;5071502;28;20044;-27
2022/03/04 01:31:03;;;;;;;18.10;10.13;;;;;;;2.63;100.00;102177.22;5071213;28;20057;-32
2022/03/04 01:33:30;;;;;;;19.27;9.15;;;;;;;2.60;100.00;102169.41;5071159;28;20103;-27
2022/03/04 01:35:58;;;;;;;18.63;10.40;;;;;;;2.59;100.00;102174.09;5071116;28;20053;-30
2022/03/04 01:38:26;;;;;;;19.27;9.95;;;;;;;2.57;100.00;102165.19;5071838;28;20040;-27
2022/03/04 01:40:55;;;;;;;20.23;10.48;;;;;;;2.56;100.00;102171.75;5071000;28;20080;-28
2022/03/04 01:43:23;;;;;;;20.23;10.77;;;;;;;2.56;100.00;102165.38;5071082;28;20041;-29
2022/03/04 01:45:52;;;;;;;17.85;9.23;;;;;;;2.55;100.00;102177.47;5071133;28;20045;-28
2022/03/04 01:48:21;;;;;;;20.27;10.25;;;;;;;2.52;100.00;102166.88;5071256;28;20051;-31
2022/03/04 01:50:50;;;;;;;20.15;9.63;;;;;;;2.48;100.00;102165.59;5071197;28;20615;-29
2022/03/04 01:53:18;;;;;;;19.55;10.38;;;;;;;2.44;100.00;102162.41;5070757;28;20048;-27
2022/03/04 01:55:46;;;;;;;19.77;10.85;;;;;;;2.39;100.00;102163.09;5071236;28;20080;-31
2022/03/04 01:58:15;;;;;;;18.45;10.20;;;;;;;2.36;100.00;102163.50;5071315;28;20045;-27
2022/03/04 02:00:43;;;;;;;20.10;10.48;;;;;;;2.35;100.00;102161.81;5071073;28;20048;-30
2022/03/04 02:03:12;;;;;;;20.30;10.75;;;;;;;2.33;100.00;102168.59;5071017;28;20470;-33
2022/03/04 02:05:40;;;;;;;21.05;10.40;;;;;;;2.30;100.00;102167.09;5071177;28;20417;-30
2022/03/04 02:08:07;;;;;;;18.30;9.93;;;;;;;2.27;100.00;102167.53;5070733;28;20131;-29
2022/03/04 02:10:35;;;;;;;22.65;10.68;;;;;;;2.26;100.00;102168.59;5070851;28;20127;-29
2022/03/04 02:13:03;;;;;;;18.63;10.23;;;;;;;2.25;100.00;102163.28;5071147;28;20073;-26
2022/03/04 02:15:33;;;;;;;18.55;10.30;;;;;;;2.23;100.00;102157.13;5070666;28;20122;-29
2022/03/04 02:18:00;;;;;;;19.35;10.10;;;;;;;2.21;100.00;102159.25;5071014;28;20131;-30
2022/03/04 02:20:30;;;;;;;19.15;10.60;;;;;;;2.18;100.00;102160.56;5071137;28;20050;-33
2022/03/04 02:22:59;;;;;;;19.10;10.20;;;;;;;2.18;100.00;102156.94;5070357;28;20044;-33
2022/03/04 02:25:27;;;;;;;18.48;9.90;;;;;;;2.17;100.00;102158.84;5071184;28;20056;-32
2022/03/04 02:27:54;;;;;;;19.05;10.18;;;;;;;2.15;100.00;102157.38;5070733;28;20053;-30
2022/03/04 02:30:22;;;;;;;19.77;9.88;;;;;;;2.14;100.00;102155.66;5071302;28;20044;-32
2022/03/04 02:32:50;;;;;;;22.15;10.88;;;;;;;2.10;100.00;102148.88;5070577;28;20509;-29
2022/03/04 02:35:17;;;;;;;21.98;11.55;;;;;;;2.07;100.00;102147.41;5069493;28;20591;-31
2022/03/04 02:37:45;;;;;;;21.63;11.20;;;;;;;2.04;100.00;102148.66;5070674;28;20155;-30
2022/03/04 02:40:15;;;;;;;21.85;10.73;;;;;;;2.04;100.00;102145.06;5070902;28;20044;-33
2022/03/04 02:42:42;;;;;;;19.60;10.63;;;;;;;2.01;100.00;102145.47;5070737;28;20059;-29
2022/03/04 02:45:10;;;;;;;21.23;10.70;;;;;;;1.99;100.00;102144.88;5069486;28;20588;-27
2022/03/04 02:47:38;;;;;;;24.30;11.55;;;;;;;1.96;100.00;102151.66;5070920;28;20048;-30
2022/03/04 02:50:06;;;;;;;21.95;11.18;;;;;;;1.93;100.00;102142.97;5070091;28;20055;-29
2022/03/04 02:52:34;;;;;;;20.40;10.85;;;;;;;1.93;100.00;102146.56;5069460;28;20445;-27
2022/03/04 02:55:02;;;;;;;22.55;11.18;;;;;;;1.91;100.00;102153.31;5070754;28;20159;-30
2022/03/04 02:57:31;;;;;;;20.88;11.07;;;;;;;1.88;100.00;102146.34;5070323;28;20044;-30
2022/03/04 02:59:59;;;;;;;22.08;11.40;;;;;;;1.86;100.00;102155.84;5070571;28;20111;-30
2022/03/04 03:02:27;;;;;;;21.20;11.02;;;;;;;1.83;100.00;102156.28;5073994;28;20050;-28
2022/03/04 03:04:55;;;;;;;20.10;9.65;;;;;;;1.83;100.00;102143.34;5073556;28;20493;-28
2022/03/04 03:07:23;;;;;;;22.75;10.90;;;;;;;1.83;100.00;102153.53;5074005;28;20493;-27
2022/03/04 03:09:50;;;;;;;20.15;9.52;;;;;;;1.80;100.00;102153.97;5074204;28;20057;-34
2022/03/04 03:12:18;;;;;;;19.60;10.13;;;;;;;1.77;100.00;102146.13;5073659;28;20056;-29
2022/03/04 03:14:47;;;;;;;17.38;9.27;;;;;;;1.76;100.00;102149.94;5073729;28;20052;-28
2022/03/04 03:17:15;;;;;;;19.73;9.77;;;;;;;1.73;100.00;102143.78;5062483;28;20466;-29
2022/03/04 03:19:43;;;;;;;16.73;8.75;;;;;;;1.73;100.00;102149.28;5074299;28;20037;-29
2022/03/04 03:22:10;;;;;;;20.67;10.20;;;;;;;1.72;100.00;102155.00;5073784;28;20401;-31
2022/03/04 03:24:38;;;;;;;20.55;10.43;;;;;;;1.71;100.00;102150.56;5073257;28;20059;-27
2022/03/04 03:27:06;;;;;;;19.77;10.23;;;;;;;1.69;100.00;102149.91;5073935;28;20037;-33
2022/03/04 03:29:34;;;;;;;16.88;9.48;;;;;;;1.66;100.00;102151.16;5073481;28;20048;-30
2022/03/04 03:32:04;;;;;;;18.77;9.57;;;;;;;1.64;100.00;102152.44;5072901;28;20045;-31
2022/03/04 03:34:31;;;;;;;19.00;8.80;;;;;;;1.60;100.00;102146.50;5073884;28;20084;-30
2022/03/04 03:36:59;;;;;;;16.85;8.75;;;;;;;1.58;100.00;102156.88;5073606;28;20184;-30
2022/03/04 03:39:27;;;;;;;17.10;8.82;;;;;;;1.53;100.00;102156.66;5073168;28;20509;-29
2022/03/04 03:41:55;;;;;;;19.33;9.05;;;;;;;1.51;100.00;102158.75;5073207;28;20102;-34
2022/03/04 03:44:22;;;;;;;17.58;8.65;;;;;;;1.49;100.00;102160.03;5073386;28;20537;-28
2022/03/04 03:46:50;;;;;;;17.25;8.75;;;;;;;1.46;100.00;102163.19;5073132;28;20098;-27
2022/03/04 03:49:19;;;;;;;19.55;9.63;;;;;;;1.44;100.00;102157.88;5073250;28;20410;-29
2022/03/04 03:51:47;;;;;;;17.42;8.65;;;;;;;1.42;100.00;102159.13;5073298;28;20118;-30
2022/03/04 03:54:15;;;;;;;17.42;9.18;;;;;;;1.40;100.00;102158.53;5072813;28;20044;-29
2022/03/04 03:56:43;;;;;;;19.00;10.23;;;;;;;1.36;100.00;102158.94;5072934;28;20055;-28
2022/03/04 03:59:11;;;;;;;16.48;8.98;;;;;;;1.35;100.00;102170.13;5073264;28;20051;-31
2022/03/04 04:01:39;;;;;;;17.10;8.48;;;;;;;1.35;100.00;102164.66;5072507;28;20049;-26
2022/03/04 04:04:08;;;;;;;18.95;9.93;;;;;;;1.32;100.00;102167.81;5073104;28;20043;-32
2022/03/04 04:06:39;;;;;;;19.40;9.52;;;;;;;1.30;100.00;102162.50;5072508;28;20059;-32
2022/03/04 04:09:08;;;;;;;17.35;9.15;;;;;;;1.29;100.00;102166.31;5073137;28;20041;-34
2022/03/04 04:11:36;;;;;;;19.40;8.80;;;;;;;1.28;100.00;102174.75;5071547;28;20109;-29
2022/03/04 04:14:06;;;;;;;20.40;10.18;;;;;;;1.28;100.00;102174.75;5070509;28;20070;-29
2022/03/04 04:16:34;;;;;;;17.98;9.55;;;;;;;1.25;100.00;102164.16;5070441;28;20048;-30
2022/03/04 04:19:02;;;;;;;20.40;10.40;;;;;;;1.25;100.00;102165.00;5071186;28;20105;-28
2022/03/04 04:21:30;;;;;;;17.00;8.73;;;;;;;1.25;100.00;102172.41;5070062;28;20055;-28
2022/03/04 04:23:59;;;;;;;18.88;10.10;;;;;;;1.24;100.00;102167.97;5070517;28;20555;-29
2022/03/04 04:26:27;;;;;;;17.73;9.38;;;;;;;1.23;100.00;102164.38;5070596;28;20517;-30
2022/03/04 04:28:55;;;;;;;17.95;9.68;;;;;;;1.23;100.00;102167.13;5071006;28;20052;-27
2022/03/04 04:31:23;;;;;;;18.65;9.40;;;;;;;1.24;100.00;102171.56;5072364;28;20055;-29
2022/03/04 04:33:51;;;;;;;17.20;9.02;;;;;;;1.24;100.00;102166.06;5072585;28;20098;-29
2022/03/04 04:36:20;;;;;;;19.20;9.13;;;;;;;1.22;100.00;102170.91;5071440;28;20052;-30
2022/03/04 04:38:47;;;;;;;19.35;9.35;;;;;;;1.22;100.00;102170.06;5071754;28;20489;-30
2022/03/04 04:41:17;;;;;;;20.05;10.07;;;;;;;1.19;100.00;102170.50;5072379;28;20068;-30
2022/03/04 04:43:45;;;;;;;20.58;9.98;;;;;;;1.17;100.00;102172.63;5071190;28;20415;-30
2022/03/04 04:46:13;;;;;;;18.52;9.57;;;;;;;1.15;100.00;102169.22;5071096;28;20049;-30
2022/03/04 04:48:41;;;;;;;18.27;9.13;;;;;;;1.13;100.00;102174.06;5063308;28;20123;-29
2022/03/04 04:51:09;;;;;;;15.77;8.68;;;;;;;1.11;100.00;102167.94;5069763;28;20370;-28
2022/03/04 04:53:39;;;;;;;16.30;9.43;;;;;;;1.08;100.00;102174.66;5069627;28;20044;-29
2022/03/04 04:56:07;;;;;;;15.57;8.30;;;;;;;1.10;100.00;102168.97;5070105;28;20044;-30
2022/03/04 04:58:36;;;;;;;18.15;9.45;;;;;;;1.10;100.00;102169.81;5070546;28;20052;-30
2022/03/04 05:01:04;;;;;;;18.88;9.00;;;;;;;1.09;100.00;102170.88;5070583;28;20048;-27
2022/03/04 05:03:32;;;;;;;15.38;7.80;;;;;;;1.09;100.00;102176.38;5070001;28;20527;-27
2022/03/04 05:06:00;;;;;;;17.17;9.02;;;;;;;1.09;100.00;102176.38;5071109;28;20412;-30
2022/03/04 05:08:29;;;;;;;17.90;9.75;;;;;;;1.09;100.00;102170.88;5071998;28;20071;-28
2022/03/04 05:10:58;;;;;;;18.60;9.27;;;;;;;1.10;100.00;102185.47;5071614;28;20048;-33
2022/03/04 05:13:25;;;;;;;16.52;8.05;;;;;;;1.09;100.00;102179.13;5071786;28;20100;-28
2022/03/04 05:15:55;;;;;;;18.58;9.82;;;;;;;1.08;100.00;102185.66;5071859;28;20049;-28
2022/03/04 05:18:22;;;;;;;17.30;9.00;;;;;;;1.06;100.00;102174.03;5071010;28;20469;-29
2022/03/04 05:20:50;;;;;;;18.60;9.68;;;;;;;1.04;100.00;102179.72;5071763;28;20041;-30
2022/03/04 05:25:59;;;;;;;17.92;9.50;;;;;;;1.01;100.00;102180.13;5070826;28;20048;-29
2022/03/04 05:28:27;;;;;;;17.02;9.02;;;;;;;1.00;100.00;102174.84;5071258;28;20048;-30
2022/03/04 05:30:57;;;;;;;16.80;8.60;;;;;;;0.97;100.00;102176.13;5071127;28;20053;-31
2022/03/04 05:33:25;;;;;;;15.25;8.15;;;;;;;0.94;100.00;102179.28;5071624;28;20036;-31
2022/03/04 05:35:52;;;;;;;16.55;8.80;;;;;;;0.92;100.00;102175.88;5070952;28;20048;-28
2022/03/04 05:38:20;;;;;;;17.67;8.90;;;;;;;0.90;100.00;102179.88;5071300;28;20040;-29
2022/03/04 05:40:48;;;;;;;15.50;7.72;;;;;;;0.88;100.00;102173.72;5071208;28;20055;-29
2022/03/04 05:43:16;;;;;;;13.63;7.68;;;;;;;0.87;100.00;102183.03;5071414;28;20052;-28
2022/03/04 05:45:43;;;;;;;14.02;8.15;;;;;;;0.84;100.00;102176.03;5071008;28;20053;-31
2022/03/04 05:48:13;;;;;;;15.85;7.53;;;;;;;0.83;100.00;102177.06;5071080;28;20459;-29
2022/03/04 05:50:40;;;;;;;17.13;9.00;;;;;;;0.82;100.00;102174.53;5071392;28;20063;-31
2022/03/04 05:53:08;;;;;;;17.92;9.55;;;;;;;0.81;100.00;102187.41;5070022;28;20049;-34
2022/03/04 05:55:36;;;;;;;13.05;6.93;;;;;;;0.79;100.00;102186.81;5070111;28;20048;-31
2022/03/04 05:58:04;;;;;;;14.43;8.15;;;;;;;0.78;100.00;102198.00;5069928;28;20397;-29
2022/03/04 06:00:32;;;;;;;16.83;8.65;;;;;;;0.75;100.00;102201.97;5069028;28;20049;-29
2022/03/04 06:03:06;;;;;;;14.10;8.05;;;;;;;0.74;100.00;102200.28;5071097;28;20696;-28
2022/03/04 06:05:35;;;;;;;15.77;8.55;;;;;;;0.73;100.00;102197.75;5071124;28;20041;-28
2022/03/04 06:08:04;;;;;;;16.02;8.95;;;;;;;0.71;100.00;102197.09;5070430;28;20056;-32
2022/03/04 06:10:31;;;;;;;16.45;8.50;;;;;;;0.68;100.00;102190.94;5070581;28;20052;-29
2022/03/04 06:12:59;;;;;;;16.80;8.77;;;;;;;0.66;100.00;102193.03;5070004;28;20070;-31
2022/03/04 06:15:27;;;;;;;11.85;6.28;;;;;;;0.65;100.00;102198.72;5069167;28;20053;-27
2022/03/04 06:17:55;;;;;;;14.50;7.35;;;;;;;0.64;100.00;102208.00;5069705;28;20564;-29
2022/03/04 06:20:23;;;;;;;14.50;7.82;;;;;;;0.62;100.00;102208.22;5068702;28;20469;-32
2022/03/04 06:22:52;;;;;;;20.73;9.75;;;;;;;0.62;100.00;102212.84;5067203;28;20406;-28
2022/03/04 06:25:20;;;;;;;14.25;7.85;;;;;;;0.59;100.00;102208.63;5069648;28;20390;-35
2022/03/04 06:27:53;;;;;;;17.38;9.15;;;;;;;0.59;100.00;102208.63;5069198;28;20139;-29
2022/03/04 06:30:22;;;;;;;17.42;10.00;;;;;;;0.58;100.00;102219.81;5069072;28;20508;-30
2022/03/04 06:32:49;;;;;;;17.80;9.38;;;;;;;0.58;100.00;102217.94;5069117;28;20045;-28
2022/03/04 06:35:17;;;;;;;16.02;8.75;;;;;;;0.59;100.00;102216.03;5068943;28;20111;-31
2022/03/04 06:37:45;;;;;;;20.08;10.43;;;;;;;0.59;100.00;102222.38;5073121;28;20472;-27
2022/03/04 06:40:14;;;;;;;15.68;7.90;;;;;;;0.61;100.00;102233.97;5073229;28;20050;-30
2022/03/04 06:42:46;;;;;;;16.45;9.05;;;;;;;0.62;100.00;102229.34;5072768;28;20414;-30
2022/03/04 06:45:14;;;;;;;15.63;8.73;;;;;;;0.62;100.00;102223.84;5073053;28;20114;-31
2022/03/04 06:47:41;;;;;;;19.30;9.80;;;;;;;0.62;100.00;102221.94;5073090;28;20285;-30
2022/03/04 06:50:09;;;;;;;17.20;9.10;;;;;;;0.65;100.00;102228.94;5072530;28;20056;-27
2022/03/04 06:52:37;;;;;;;19.40;10.10;;;;;;;0.66;100.00;102233.38;5072944;28;20048;-28
2022/03/04 06:55:05;;;;;;;21.20;11.18;;;;;;;0.68;100.00;102231.28;5073237;28;20130;-27
2022/03/04 06:57:35;;;;;;;19.75;9.95;;;;;;;0.70;100.00;102234.69;5061297;28;20048;-29
2022/03/04 07:00:07;;;;;;;19.83;11.23;;;;;;;0.74;100.00;102233.25;5072652;28;20230;-29
2022/03/04 07:02:35;;;;;;;20.50;10.75;;;;;;;0.77;100.00;102235.59;5072187;28;20087;-30
2022/03/04 07:05:03;;;;;;;20.67;11.25;;;;;;;0.83;100.00;102244.91;5072966;28;20561;-29
2022/03/04 07:07:31;;;;;;;21.83;11.20;;;;;;;0.86;100.00;102231.63;5072909;28;20485;-29
2022/03/04 07:09:59;;;;;;;22.90;11.07;;;;;;;0.89;100.00;102236.72;5072441;28;20047;-28
2022/03/04 07:12:27;;;;;;;21.08;11.50;;;;;;;0.94;100.00;102242.47;5071869;28;20052;-27
2022/03/04 07:14:56;;;;;;;22.80;12.38;;;;;;;0.96;100.00;102245.88;5072617;28;20106;-29
2022/03/04 07:17:24;;;;;;;26.58;13.35;;;;;;;1.06;100.00;102242.75;5071627;28;20048;-26
2022/03/04 07:19:52;;;;;;;24.67;12.93;;;;;;;1.23;100.00;102251.50;5072504;28;20033;-29
2022/03/04 07:22:20;;;;;;;23.10;12.30;;;;;;;1.46;100.00;102252.03;5072714;28;20139;-28
2022/03/04 07:24:47;;;;;;;20.05;11.20;;;;;;;1.81;100.00;102243.69;5071554;28;20053;-28
2022/03/04 07:27:15;;;;;;;24.35;13.50;;;;;;;2.20;100.00;102246.53;5072833;28;20127;-30
2022/03/04 07:29:43;;;;;;;23.80;13.13;;;;;;;2.56;100.00;102245.28;5073222;28;20044;-31
2022/03/04 07:32:12;;;;;;;23.25;12.85;;;;;;;2.92;100.00;102244.84;5072804;28;20044;-32
2022/03/04 07:34:40;;;;;;;25.02;13.88;;;;;;;3.33;100.00;102250.88;5071983;28;20048;-30
2022/03/04 07:37:12;;;;;;;23.55;12.85;;;;;;;3.70;100.00;102246.47;5072635;28;20057;-30
2022/03/04 07:39:43;;;;;;;23.95;13.18;;;;;;;4.00;100.00;102243.97;5071798;28;20052;-34
2022/03/04 07:42:11;;;;;;;22.92;12.55;;;;;;;4.49;100.00;102254.25;5071428;28;20071;-32
2022/03/04 07:44:39;;;;;;;22.92;12.85;;;;;;;4.85;100.00;102247.97;5073080;28;20051;-29
2022/03/04 07:47:07;;;;;;;20.63;12.23;;;;;;;5.27;100.00;102248.19;5072833;28;20059;-28
2022/03/04 07:49:36;;;;;;;19.92;11.55;;;;;;;5.57;100.00;102245.50;5073558;28;20059;-33
2022/03/04 07:52:04;;;;;;;22.15;12.77;;;;;;;5.83;100.00;102245.13;5073120;28;20040;-36
2022/03/04 07:54:32;;;;;;;19.55;11.10;;;;;;;6.14;100.00;102257.13;5072058;28;20469;-30
2022/03/04 07:57:00;;;;;;;20.35;12.07;;;;;;;6.43;100.00;102256.22;5073481;28;20036;-31
2022/03/04 07:59:27;;;;;;;19.20;12.25;;;;;;;6.61;100.00;102263.63;5072635;28;20049;-31
2022/03/04 08:01:55;;;;;;;20.60;12.48;;;;;;;6.82;100.00;102265.81;5073049;28;20405;-35
2022/03/04 08:04:23;;;;;;;22.23;12.18;;;;;;;7.12;100.00;102271.25;5073093;28;20048;-32
2022/03/04 08:06:52;;;;;;;19.48;11.07;;;;;;;7.29;99.21;102264.97;5072752;28;20052;-28
2022/03/04 08:09:20;;;;;;;19.50;12.65;;;;;;;7.48;98.28;102260.97;5072771;28;20050;-32
2022/03/04 08:11:49;;;;;;;19.52;12.23;;;;;;;7.87;96.67;102254.56;5073299;28;20045;-27
2022/03/04 08:14:17;;;;;;;19.42;11.43;;;;;;;8.20;96.15;102258.53;5072214;28;20053;-29
2022/03/04 08:16:45;;;;;;;18.58;11.88;;;;;;;8.56;93.07;102257.28;5072646;28;20055;-35
2022/03/04 08:19:12;;;;;;;20.52;12.30;;;;;;;8.82;89.97;102261.34;5072803;28;20052;-32
2022/03/04 08:21:40;;;;;;;19.95;12.60;;;;;;;8.93;86.68;102260.41;5071693;28;20052;-30
2022/03/04 08:24:09;;;;;;;19.58;13.07;;;;;;;8.87;81.14;102264.22;5072759;28;20058;-29
2022/03/04 08:26:38;;;;;;;18.63;11.63;;;;;;;8.81;81.65;102257.72;5072350;28;20052;-33
2022/03/04 08:29:06;;;;;;;19.88;12.65;;;;;;;8.93;82.88;102271.56;5072470;28;20045;-30
2022/03/04 08:31:34;;;;;;;18.25;12.68;;;;;;;9.08;81.54;102266.22;5072646;28;20048;-29
2022/03/04 08:34:02;;;;;;;21.85;13.68;;;;;;;9.21;79.93;102267.78;5071999;28;20045;-28
2022/03/04 08:36:29;;;;;;;19.55;12.73;;;;;;;9.31;78.75;102276.31;5072184;28;20066;-32
2022/03/04 08:38:59;;;;;;;19.55;13.68;;;;;;;9.16;76.50;102276.94;5072420;28;20520;-28
2022/03/04 08:41:28;;;;;;;19.95;13.07;;;;;;;9.27;77.83;102281.56;5071914;28;20127;-33
2022/03/04 08:43:56;;;;;;;17.83;12.43;;;;;;;9.57;78.48;102278.38;5072181;28;20051;-32
2022/03/04 08:46:24;;;;;;;18.23;12.15;;;;;;;10.13;76.23;102278.22;5072632;28;20120;-34
2022/03/04 08:48:52;;;;;;;21.38;13.55;;;;;;;10.30;73.30;102274.25;5071619;28;20076;-30
2022/03/04 08:51:24;;;;;;;20.30;13.30;;;;;;;10.26;71.30;102278.66;5071564;28;20052;-32
2022/03/04 08:53:52;;;;;;;19.60;12.60;;;;;;;10.10;70.53;102265.63;5070942;28;20040;-32
2022/03/04 08:56:21;;;;;;;18.20;12.52;;;;;;;10.14;71.23;102269.59;5071509;28;20040;-36
2022/03/04 08:58:50;;;;;;;20.10;13.88;;;;;;;10.34;68.98;102269.84;5070877;28;20048;-31
2022/03/04 09:01:18;;;;;;;20.30;13.65;;;;;;;10.27;68.89;102268.34;5071887;28;20405;-33
2022/03/04 09:03:47;;;;;;;21.27;14.10;;;;;;;10.28;68.62;102272.84;5060555;28;20044;-30
2022/03/04 09:06:14;;;;;;;20.63;13.85;;;;;;;10.16;65.57;102266.53;5071328;28;20048;-27
2022/03/04 09:08:42;;;;;;;21.30;14.63;;;;;;;10.18;67.99;102267.13;5071935;28;20048;-29
2022/03/04 09:11:10;;;;;;;21.75;14.07;;;;;;;10.34;68.05;102271.78;5070650;28;20055;-29
2022/03/04 09:13:37;;;;;;;20.27;13.98;;;;;;;10.54;67.49;102260.00;5071751;28;20489;-31
2022/03/04 09:16:07;;;;;;;18.50;12.70;;;;;;;10.74;66.22;102268.53;5071164;28;20056;-34
2022/03/04 09:18:34;;;;;;;20.17;13.77;;;;;;;10.91;65.95;102276.78;5070954;28;20140;-34
2022/03/04 09:21:03;;;;;;;22.08;14.75;;;;;;;11.03;65.39;102274.63;5071772;28;20063;-33
2022/03/04 09:23:31;;;;;;;20.10;14.50;;;;;;;10.84;64.10;102277.00;5070837;28;20142;-32
2022/03/04 09:25:59;;;;;;;20.83;14.90;;;;;;;10.62;65.12;102267.84;5071094;28;20547;-30
2022/03/04 09:28:28;;;;;;;20.08;14.18;;;;;;;10.70;66.39;102276.59;5071595;28;20041;-30
2022/03/04 09:30:56;;;;;;;19.50;14.02;;;;;;;11.10;65.86;102278.03;5070824;28;20131;-28
2022/03/04 09:33:25;;;;;;;20.95;14.63;;;;;;;11.42;64.93;102277.13;5069878;28;20044;-30
2022/03/04 09:35:53;;;;;;;21.85;15.43;;;;;;;11.72;63.06;102286.53;5070963;28;20041;-28
2022/03/04 09:38:21;;;;;;;21.05;14.90;;;;;;;11.69;62.21;102289.88;5070649;28;20086;-31
2022/03/04 09:40:49;;;;;;;20.63;14.30;;;;;;;11.48;61.95;102290.88;5071352;28;20058;-29
2022/03/04 09:43:18;;;;;;;19.55;14.48;;;;;;;11.23;61.73;102285.94;5071394;28;20044;-31
2022/03/04 09:45:47;;;;;;;19.35;13.77;;;;;;;11.38;64.03;102288.03;5070847;28;20051;-36
2022/03/04 09:48:15;;;;;;;20.33;14.95;;;;;;;11.83;63.04;102290.25;5059971;28;20089;-30
2022/03/04 09:50:48;;;;;;;20.17;14.88;;;;;;;11.84;62.21;102280.75;5071265;28;20052;-32
2022/03/04 09:53:17;;;;;;;21.15;14.60;;;;;;;11.82;61.91;102285.75;5070525;28;20106;-30
2022/03/04 09:55:46;;;;;;;22.15;16.02;;;;;;;11.90;62.17;102274.06;5071461;28;20049;-31
2022/03/04 09:58:15;;;;;;;22.98;16.15;;;;;;;12.19;61.43;102274.44;5069446;28;20380;-30
2022/03/04 10:00:44;;;;;;;21.45;16.25;;;;;;;12.32;60.35;102275.88;5060326;28;20140;-28
2022/03/04 10:03:20;;;;;;;19.63;14.98;;;;;;;12.08;59.62;102276.38;5070337;28;20049;-30
2022/03/04 10:05:54;;;;;;;20.70;15.07;;;;;;;12.38;61.78;102274.78;5070838;28;20493;-32
2022/03/04 10:08:23;;;;;;;22.50;15.93;;;;;;;13.04;60.72;102277.59;5070218;28;20132;-32
2022/03/04 10:10:51;;;;;;;22.65;16.55;;;;;;;13.41;58.59;102274.50;5074190;28;20063;-31
2022/03/04 10:13:19;;;;;;;19.90;14.82;;;;;;;13.84;57.56;102264.53;5074594;28;20048;-31
2022/03/04 10:15:54;;;;;;;24.65;17.50;;;;;;;13.73;54.72;102258.16;5071635;28;20414;-29
2022/03/04 10:18:26;;;;;;;21.00;15.20;;;;;;;13.66;55.53;102266.00;5075098;28;20087;-32
2022/03/04 10:20:56;;;;;;;18.80;14.13;;;;;;;13.79;55.35;102268.19;5071180;28;20127;-29
2022/03/04 10:23:26;;;;;;;21.02;15.77;;;;;;;13.81;55.06;102259.50;5074877;28;20059;-31
2022/03/04 10:25:56;;;;;;;23.77;16.58;;;;;;;13.79;55.02;102254.19;5074914;28;20426;-32
2022/03/04 10:28:25;;;;;;;21.48;15.52;;;;;;;13.61;53.35;102260.41;5074195;28;20059;-36
2022/03/04 10:30:55;;;;;;;25.70;18.08;;;;;;;13.36;54.98;102255.75;5073704;28;20383;-33
2022/03/04 10:33:42;;;;;;;23.95;17.35;;;;;;;13.14;55.66;102257.16;5074551;28;20049;-31
2022/03/04 10:36:14;;;;;;;23.60;16.98;;;;;;;12.99;56.13;102258.81;5074079;28;20417;-33
2022/03/04 10:38:42;;;;;;;22.88;16.60;;;;;;;12.82;56.32;102266.69;5074648;28;20045;-31
2022/03/04 10:41:24;;;;;;;22.85;16.45;;;;;;;12.16;53.45;102265.75;5074197;28;20041;-34
2022/03/04 10:43:52;;;;;;;25.20;17.85;;;;;;;11.51;57.63;102258.75;5074554;28;20123;-29
2022/03/04 10:46:20;;;;;;;24.00;18.00;;;;;;;11.39;59.56;102253.34;5074638;28;20390;-35
2022/03/04 10:48:53;;;;;;;25.15;17.90;;;;;;;11.45;59.10;102259.81;5074072;28;20041;-30
2022/03/04 10:51:40;;;;;;;24.35;17.67;;;;;;;11.07;58.36;102253.44;5074120;28;20068;-32
2022/03/04 10:54:13;;;;;;;24.85;17.73;;;;;;;10.86;61.04;102246.84;5074710;28;20048;-32
2022/03/04 10:56:52;;;;;;;26.63;18.25;;;;;;;10.79;60.26;102242.63;5073685;28;20119;-33
2022/03/04 10:59:20;;;;;;;26.23;17.92;;;;;;;10.48;61.51;102253.50;5074273;28;20044;-34
2022/03/04 11:01:49;;;;;;;27.95;18.42;;;;;;;10.42;62.69;102243.41;5073867;28;20036;-31
2022/03/04 11:04:18;;;;;;;24.67;17.63;;;;;;;10.34;61.88;102255.91;5074311;28;20158;-27
2022/03/04 11:06:49;;;;;;;25.55;18.55;;;;;;;10.26;62.97;102259.16;5074252;28;20044;-33
2022/03/04 11:09:23;;;;;;;24.70;18.50;;;;;;;10.38;63.34;102249.78;5065213;28;20039;-28
2022/03/04 11:11:53;;;;;;;27.23;19.00;;;;;;;10.50;61.65;102245.72;5074409;28;20063;-30
2022/03/04 11:14:21;;;;;;;23.67;17.10;;;;;;;10.55;62.84;102240.19;5073870;28;20054;-31
2022/03/04 11:16:50;;;;;;;25.13;17.27;;;;;;;10.72;63.21;102244.78;5073705;28;20049;-37
2022/03/04 11:19:19;;;;;;;27.67;18.05;;;;;;;10.96;62.83;102234.94;5073907;28;20044;-29
2022/03/04 11:21:49;;;;;;;23.17;15.90;;;;;;;11.09;62.60;102245.63;5073219;28;20048;-30